sensor_id;sensor_type;location;lat;lon;timestamp;P1;durP1;ratioP1;P2;durP2;ratioP2
18653;SDS011;9456;47.824;16.228;2023-07-31T00:00:48;2.57;;;2.37;;
18653;SDS011;9456;47.824;16.228;2023-07-31T00:03:17;3.03;;;2.07;;
18653;SDS011;9456;47.824;16.228;2023-07-31T00:05:46;5.00;;;2.10;;
18653;SDS011;9456;47.824;16.228;2023-07-31T00:08:15;6.33;;;2.90;;
18653;SDS011;9456;47.824;16.228;2023-07-31T00:10:44;2.93;;;2.67;;
18653;SDS011;9456;47.824;16.228;2023-07-31T00:13:13;2.87;;;2.20;;
18653;SDS011;9456;47.824;16.228;2023-07-31T00:15:42;2.03;;;1.90;;
18653;SDS011;9456;47.824;16.228;2023-07-31T00:18:11;2.00;;;1.90;;
18653;SDS011;9456;47.824;16.228;2023-07-31T00:20:40;1.97;;;1.87;;
18653;SDS011;9456;47.824;16.228;2023-07-31T00:23:08;2.30;;;2.10;;
18653;SDS011;9456;47.824;16.228;2023-07-31T00:25:37;3.03;;;2.20;;
18653;SDS011;9456;47.824;16.228;2023-07-31T00:28:06;2.70;;;2.10;;
18653;SDS011;9456;47.824;16.228;2023-07-31T00:30:35;2.50;;;2.00;;
18653;SDS011;9456;47.824;16.228;2023-07-31T00:33:04;2.77;;;2.10;;
18653;SDS011;9456;47.824;16.228;2023-07-31T00:35:33;2.47;;;2.27;;
18653;SDS011;9456;47.824;16.228;2023-07-31T00:38:02;2.60;;;2.40;;
18653;SDS011;9456;47.824;16.228;2023-07-31T00:40:35;2.50;;;2.30;;
18653;SDS011;9456;47.824;16.228;2023-07-31T00:43:04;2.30;;;2.00;;
18653;SDS011;9456;47.824;16.228;2023-07-31T00:45:34;2.17;;;2.07;;
18653;SDS011;9456;47.824;16.228;2023-07-31T00:48:03;2.60;;;1.90;;
18653;SDS011;9456;47.824;16.228;2023-07-31T00:50:33;2.40;;;2.20;;
18653;SDS011;9456;47.824;16.228;2023-07-31T00:53:02;2.30;;;2.10;;
18653;SDS011;9456;47.824;16.228;2023-07-31T00:55:31;2.20;;;2.00;;
18653;SDS011;9456;47.824;16.228;2023-07-31T00:58:00;2.60;;;2.37;;
18653;SDS011;9456;47.824;16.228;2023-07-31T01:00:29;2.33;;;2.10;;
18653;SDS011;9456;47.824;16.228;2023-07-31T01:03:00;2.40;;;2.00;;
18653;SDS011;9456;47.824;16.228;2023-07-31T01:05:32;2.40;;;2.20;;
18653;SDS011;9456;47.824;16.228;2023-07-31T01:08:08;2.90;;;2.63;;
18653;SDS011;9456;47.824;16.228;2023-07-31T01:10:37;2.80;;;2.47;;
18653;SDS011;9456;47.824;16.228;2023-07-31T01:13:06;2.60;;;2.40;;
18653;SDS011;9456;47.824;16.228;2023-07-31T01:15:35;2.43;;;2.23;;
18653;SDS011;9456;47.824;16.228;2023-07-31T01:20:41;2.40;;;2.20;;
18653;SDS011;9456;47.824;16.228;2023-07-31T01:23:22;3.23;;;2.37;;
18653;SDS011;9456;47.824;16.228;2023-07-31T01:26:02;3.00;;;2.07;;
18653;SDS011;9456;47.824;16.228;2023-07-31T01:28:33;3.50;;;2.40;;
18653;SDS011;9456;47.824;16.228;2023-07-31T01:31:01;2.90;;;2.33;;
18653;SDS011;9456;47.824;16.228;2023-07-31T01:33:30;4.23;;;2.37;;
18653;SDS011;9456;47.824;16.228;2023-07-31T01:35:59;2.47;;;2.10;;
18653;SDS011;9456;47.824;16.228;2023-07-31T01:38:28;2.60;;;2.40;;
18653;SDS011;9456;47.824;16.228;2023-07-31T01:40:57;3.00;;;2.43;;
18653;SDS011;9456;47.824;16.228;2023-07-31T01:43:26;2.60;;;2.40;;
18653;SDS011;9456;47.824;16.228;2023-07-31T01:45:55;2.57;;;2.30;;
18653;SDS011;9456;47.824;16.228;2023-07-31T01:48:24;3.60;;;2.50;;
18653;SDS011;9456;47.824;16.228;2023-07-31T01:50:53;4.07;;;2.60;;
18653;SDS011;9456;47.824;16.228;2023-07-31T01:53:22;2.70;;;2.50;;
18653;SDS011;9456;47.824;16.228;2023-07-31T01:55:51;3.30;;;2.50;;
18653;SDS011;9456;47.824;16.228;2023-07-31T01:58:20;6.03;;;2.63;;
18653;SDS011;9456;47.824;16.228;2023-07-31T02:00:49;5.77;;;2.80;;
18653;SDS011;9456;47.824;16.228;2023-07-31T02:03:17;4.33;;;2.53;;
18653;SDS011;9456;47.824;16.228;2023-07-31T02:05:47;2.97;;;2.50;;
18653;SDS011;9456;47.824;16.228;2023-07-31T02:08:16;4.70;;;2.43;;
18653;SDS011;9456;47.824;16.228;2023-07-31T02:10:44;2.20;;;2.00;;
18653;SDS011;9456;47.824;16.228;2023-07-31T02:13:13;5.13;;;2.90;;
18653;SDS011;9456;47.824;16.228;2023-07-31T02:15:42;2.30;;;2.20;;
18653;SDS011;9456;47.824;16.228;2023-07-31T02:18:11;2.30;;;2.20;;
18653;SDS011;9456;47.824;16.228;2023-07-31T02:20:40;4.47;;;2.40;;
18653;SDS011;9456;47.824;16.228;2023-07-31T02:23:09;2.50;;;2.20;;
18653;SDS011;9456;47.824;16.228;2023-07-31T02:25:38;3.03;;;2.77;;
18653;SDS011;9456;47.824;16.228;2023-07-31T02:28:07;2.73;;;2.53;;
18653;SDS011;9456;47.824;16.228;2023-07-31T02:30:36;2.70;;;2.50;;
18653;SDS011;9456;47.824;16.228;2023-07-31T02:33:05;2.60;;;2.40;;
18653;SDS011;9456;47.824;16.228;2023-07-31T02:35:34;2.80;;;2.50;;
18653;SDS011;9456;47.824;16.228;2023-07-31T02:38:15;3.07;;;2.70;;
18653;SDS011;9456;47.824;16.228;2023-07-31T02:40:44;3.17;;;2.80;;
18653;SDS011;9456;47.824;16.228;2023-07-31T02:43:13;3.37;;;2.80;;
18653;SDS011;9456;47.824;16.228;2023-07-31T02:45:42;5.03;;;2.83;;
18653;SDS011;9456;47.824;16.228;2023-07-31T02:48:11;7.77;;;2.90;;
18653;SDS011;9456;47.824;16.228;2023-07-31T02:50:40;2.80;;;2.50;;
18653;SDS011;9456;47.824;16.228;2023-07-31T02:53:09;2.87;;;2.67;;
18653;SDS011;9456;47.824;16.228;2023-07-31T02:55:38;4.00;;;2.50;;
18653;SDS011;9456;47.824;16.228;2023-07-31T02:58:07;4.67;;;2.73;;
18653;SDS011;9456;47.824;16.228;2023-07-31T03:00:35;4.63;;;2.40;;
18653;SDS011;9456;47.824;16.228;2023-07-31T03:03:05;5.10;;;3.07;;
18653;SDS011;9456;47.824;16.228;2023-07-31T03:05:33;3.40;;;2.90;;
18653;SDS011;9456;47.824;16.228;2023-07-31T03:08:03;5.17;;;3.63;;
18653;SDS011;9456;47.824;16.228;2023-07-31T03:10:31;3.33;;;3.03;;
18653;SDS011;9456;47.824;16.228;2023-07-31T03:13:00;5.67;;;3.33;;
18653;SDS011;9456;47.824;16.228;2023-07-31T03:15:29;3.87;;;2.70;;
18653;SDS011;9456;47.824;16.228;2023-07-31T04:13:44;4.97;;;3.33;;
18653;SDS011;9456;47.824;16.228;2023-07-31T04:16:13;4.37;;;2.77;;
18653;SDS011;9456;47.824;16.228;2023-07-31T04:18:42;3.10;;;2.80;;
18653;SDS011;9456;47.824;16.228;2023-07-31T04:21:11;4.73;;;3.23;;
18653;SDS011;9456;47.824;16.228;2023-07-31T04:23:40;3.80;;;3.13;;
18653;SDS011;9456;47.824;16.228;2023-07-31T04:26:09;5.43;;;3.20;;
18653;SDS011;9456;47.824;16.228;2023-07-31T04:28:38;4.17;;;2.63;;
18653;SDS011;9456;47.824;16.228;2023-07-31T04:31:06;4.70;;;3.20;;
18653;SDS011;9456;47.824;16.228;2023-07-31T04:36:06;3.50;;;3.20;;
18653;SDS011;9456;47.824;16.228;2023-07-31T04:38:35;4.73;;;3.17;;
18653;SDS011;9456;47.824;16.228;2023-07-31T04:41:04;4.17;;;3.00;;
18653;SDS011;9456;47.824;16.228;2023-07-31T04:43:33;3.13;;;2.80;;
18653;SDS011;9456;47.824;16.228;2023-07-31T04:46:02;3.47;;;2.80;;
18653;SDS011;9456;47.824;16.228;2023-07-31T04:48:31;3.67;;;2.80;;
18653;SDS011;9456;47.824;16.228;2023-07-31T04:51:00;3.90;;;2.90;;
18653;SDS011;9456;47.824;16.228;2023-07-31T04:53:29;3.53;;;2.90;;
18653;SDS011;9456;47.824;16.228;2023-07-31T04:55:58;4.43;;;3.23;;
18653;SDS011;9456;47.824;16.228;2023-07-31T04:58:27;5.07;;;3.33;;
18653;SDS011;9456;47.824;16.228;2023-07-31T05:00:56;3.90;;;2.80;;
18653;SDS011;9456;47.824;16.228;2023-07-31T05:03:25;2.70;;;2.30;;
18653;SDS011;9456;47.824;16.228;2023-07-31T05:05:54;5.70;;;2.63;;
18653;SDS011;9456;47.824;16.228;2023-07-31T05:08:23;5.40;;;2.40;;
18653;SDS011;9456;47.824;16.228;2023-07-31T05:10:52;2.70;;;2.50;;
18653;SDS011;9456;47.824;16.228;2023-07-31T05:13:21;2.80;;;2.30;;
18653;SDS011;9456;47.824;16.228;2023-07-31T05:18:30;3.40;;;2.37;;
18653;SDS011;9456;47.824;16.228;2023-07-31T05:20:59;4.43;;;2.73;;
18653;SDS011;9456;47.824;16.228;2023-07-31T05:23:28;5.50;;;2.70;;
18653;SDS011;9456;47.824;16.228;2023-07-31T05:26:01;3.90;;;2.13;;
18653;SDS011;9456;47.824;16.228;2023-07-31T05:28:30;7.67;;;2.57;;
18653;SDS011;9456;47.824;16.228;2023-07-31T05:31:00;4.50;;;2.30;;
18653;SDS011;9456;47.824;16.228;2023-07-31T05:33:29;4.03;;;2.43;;
18653;SDS011;9456;47.824;16.228;2023-07-31T05:35:58;4.33;;;2.67;;
18653;SDS011;9456;47.824;16.228;2023-07-31T05:38:27;7.10;;;2.47;;
18653;SDS011;9456;47.824;16.228;2023-07-31T05:40:55;5.03;;;2.43;;
18653;SDS011;9456;47.824;16.228;2023-07-31T05:43:24;4.23;;;2.10;;
18653;SDS011;9456;47.824;16.228;2023-07-31T05:45:53;5.07;;;2.13;;
18653;SDS011;9456;47.824;16.228;2023-07-31T05:48:22;2.37;;;1.70;;
18653;SDS011;9456;47.824;16.228;2023-07-31T05:50:51;2.07;;;1.83;;
18653;SDS011;9456;47.824;16.228;2023-07-31T05:53:20;5.43;;;2.20;;
18653;SDS011;9456;47.824;16.228;2023-07-31T05:55:49;5.57;;;2.17;;
18653;SDS011;9456;47.824;16.228;2023-07-31T05:58:18;1.90;;;1.70;;
18653;SDS011;9456;47.824;16.228;2023-07-31T06:00:47;3.57;;;1.73;;
18653;SDS011;9456;47.824;16.228;2023-07-31T06:03:16;5.03;;;1.70;;
18653;SDS011;9456;47.824;16.228;2023-07-31T06:05:45;5.17;;;2.10;;
18653;SDS011;9456;47.824;16.228;2023-07-31T06:08:14;3.33;;;2.10;;
18653;SDS011;9456;47.824;16.228;2023-07-31T06:10:43;3.67;;;1.83;;
18653;SDS011;9456;47.824;16.228;2023-07-31T06:13:12;3.30;;;1.70;;
18653;SDS011;9456;47.824;16.228;2023-07-31T06:15:40;6.20;;;2.07;;
18653;SDS011;9456;47.824;16.228;2023-07-31T06:18:13;3.13;;;1.83;;
18653;SDS011;9456;47.824;16.228;2023-07-31T06:20:42;7.53;;;2.83;;
18653;SDS011;9456;47.824;16.228;2023-07-31T06:23:11;5.77;;;2.10;;
18653;SDS011;9456;47.824;16.228;2023-07-31T06:25:40;12.13;;;2.40;;
18653;SDS011;9456;47.824;16.228;2023-07-31T06:28:08;2.90;;;1.60;;
18653;SDS011;9456;47.824;16.228;2023-07-31T06:30:37;2.23;;;1.70;;
18653;SDS011;9456;47.824;16.228;2023-07-31T06:33:06;2.97;;;1.63;;
18653;SDS011;9456;47.824;16.228;2023-07-31T06:35:36;4.07;;;2.03;;
18653;SDS011;9456;47.824;16.228;2023-07-31T06:38:04;2.03;;;1.33;;
18653;SDS011;9456;47.824;16.228;2023-07-31T06:40:33;5.43;;;1.90;;
18653;SDS011;9456;47.824;16.228;2023-07-31T06:43:02;2.13;;;1.50;;
18653;SDS011;9456;47.824;16.228;2023-07-31T06:45:31;2.70;;;1.57;;
18653;SDS011;9456;47.824;16.228;2023-07-31T06:48:00;2.87;;;1.30;;
18653;SDS011;9456;47.824;16.228;2023-07-31T06:50:29;4.63;;;1.80;;
18653;SDS011;9456;47.824;16.228;2023-07-31T06:52:58;2.50;;;1.57;;
18653;SDS011;9456;47.824;16.228;2023-07-31T06:55:27;3.23;;;1.33;;
18653;SDS011;9456;47.824;16.228;2023-07-31T06:58:02;1.87;;;1.20;;
18653;SDS011;9456;47.824;16.228;2023-07-31T07:00:32;2.00;;;1.60;;
18653;SDS011;9456;47.824;16.228;2023-07-31T07:03:10;2.63;;;1.57;;
18653;SDS011;9456;47.824;16.228;2023-07-31T07:05:40;3.10;;;1.40;;
18653;SDS011;9456;47.824;16.228;2023-07-31T07:08:09;1.53;;;1.40;;
18653;SDS011;9456;47.824;16.228;2023-07-31T07:10:38;3.97;;;1.50;;
18653;SDS011;9456;47.824;16.228;2023-07-31T07:13:07;2.67;;;1.33;;
18653;SDS011;9456;47.824;16.228;2023-07-31T07:15:36;2.33;;;1.47;;
18653;SDS011;9456;47.824;16.228;2023-07-31T07:18:05;3.10;;;1.43;;
18653;SDS011;9456;47.824;16.228;2023-07-31T07:20:34;4.73;;;1.67;;
18653;SDS011;9456;47.824;16.228;2023-07-31T07:23:03;3.27;;;1.53;;
18653;SDS011;9456;47.824;16.228;2023-07-31T07:25:32;3.33;;;1.37;;
18653;SDS011;9456;47.824;16.228;2023-07-31T07:28:01;3.20;;;1.17;;
18653;SDS011;9456;47.824;16.228;2023-07-31T07:30:30;1.63;;;1.27;;
18653;SDS011;9456;47.824;16.228;2023-07-31T07:32:59;2.60;;;1.60;;
18653;SDS011;9456;47.824;16.228;2023-07-31T07:35:28;6.03;;;1.30;;
18653;SDS011;9456;47.824;16.228;2023-07-31T07:37:57;1.83;;;1.30;;
18653;SDS011;9456;47.824;16.228;2023-07-31T07:40:26;3.67;;;1.40;;
18653;SDS011;9456;47.824;16.228;2023-07-31T07:42:55;4.77;;;1.50;;
18653;SDS011;9456;47.824;16.228;2023-07-31T07:45:24;10.53;;;1.70;;
18653;SDS011;9456;47.824;16.228;2023-07-31T07:47:53;3.67;;;1.50;;
18653;SDS011;9456;47.824;16.228;2023-07-31T07:50:22;3.60;;;1.40;;
18653;SDS011;9456;47.824;16.228;2023-07-31T07:52:51;4.13;;;1.30;;
18653;SDS011;9456;47.824;16.228;2023-07-31T07:55:20;4.17;;;1.47;;
18653;SDS011;9456;47.824;16.228;2023-07-31T07:57:49;2.10;;;1.40;;
18653;SDS011;9456;47.824;16.228;2023-07-31T08:00:18;2.53;;;1.33;;
18653;SDS011;9456;47.824;16.228;2023-07-31T08:02:46;2.53;;;1.50;;
18653;SDS011;9456;47.824;16.228;2023-07-31T08:05:16;2.37;;;1.30;;
18653;SDS011;9456;47.824;16.228;2023-07-31T08:07:45;2.33;;;1.37;;
18653;SDS011;9456;47.824;16.228;2023-07-31T08:10:14;2.57;;;1.30;;
18653;SDS011;9456;47.824;16.228;2023-07-31T08:12:43;2.33;;;1.27;;
18653;SDS011;9456;47.824;16.228;2023-07-31T08:15:12;3.87;;;1.50;;
18653;SDS011;9456;47.824;16.228;2023-07-31T08:17:41;2.20;;;1.40;;
18653;SDS011;9456;47.824;16.228;2023-07-31T08:20:11;3.60;;;1.60;;
18653;SDS011;9456;47.824;16.228;2023-07-31T08:22:41;2.50;;;1.30;;
18653;SDS011;9456;47.824;16.228;2023-07-31T08:25:10;3.60;;;1.93;;
18653;SDS011;9456;47.824;16.228;2023-07-31T08:27:39;2.57;;;1.73;;
18653;SDS011;9456;47.824;16.228;2023-07-31T08:30:11;2.60;;;1.40;;
18653;SDS011;9456;47.824;16.228;2023-07-31T08:32:40;3.00;;;1.20;;
18653;SDS011;9456;47.824;16.228;2023-07-31T08:35:09;2.57;;;1.60;;
18653;SDS011;9456;47.824;16.228;2023-07-31T08:37:38;3.40;;;1.67;;
18653;SDS011;9456;47.824;16.228;2023-07-31T08:40:17;2.50;;;1.50;;
18653;SDS011;9456;47.824;16.228;2023-07-31T08:42:46;1.53;;;1.40;;
18653;SDS011;9456;47.824;16.228;2023-07-31T08:45:15;4.00;;;1.73;;
18653;SDS011;9456;47.824;16.228;2023-07-31T08:47:45;2.13;;;1.30;;
18653;SDS011;9456;47.824;16.228;2023-07-31T08:50:14;3.37;;;1.77;;
18653;SDS011;9456;47.824;16.228;2023-07-31T08:52:42;2.20;;;1.50;;
18653;SDS011;9456;47.824;16.228;2023-07-31T08:55:11;2.40;;;1.50;;
18653;SDS011;9456;47.824;16.228;2023-07-31T08:57:40;2.00;;;1.30;;
18653;SDS011;9456;47.824;16.228;2023-07-31T09:00:10;4.33;;;2.10;;
18653;SDS011;9456;47.824;16.228;2023-07-31T09:02:51;1.50;;;1.27;;
18653;SDS011;9456;47.824;16.228;2023-07-31T09:08:48;2.50;;;1.43;;
18653;SDS011;9456;47.824;16.228;2023-07-31T09:11:17;2.07;;;1.40;;
18653;SDS011;9456;47.824;16.228;2023-07-31T09:13:46;2.27;;;1.50;;
18653;SDS011;9456;47.824;16.228;2023-07-31T09:16:15;4.33;;;1.80;;
18653;SDS011;9456;47.824;16.228;2023-07-31T09:18:53;1.70;;;1.60;;
18653;SDS011;9456;47.824;16.228;2023-07-31T09:21:22;2.03;;;1.40;;
18653;SDS011;9456;47.824;16.228;2023-07-31T09:23:58;2.33;;;1.13;;
18653;SDS011;9456;47.824;16.228;2023-07-31T09:26:30;1.53;;;1.30;;
18653;SDS011;9456;47.824;16.228;2023-07-31T09:29:00;2.83;;;1.30;;
18653;SDS011;9456;47.824;16.228;2023-07-31T09:31:41;2.90;;;1.30;;
18653;SDS011;9456;47.824;16.228;2023-07-31T09:34:10;1.27;;;1.17;;
18653;SDS011;9456;47.824;16.228;2023-07-31T09:36:40;2.10;;;1.37;;
18653;SDS011;9456;47.824;16.228;2023-07-31T09:39:10;5.43;;;1.20;;
18653;SDS011;9456;47.824;16.228;2023-07-31T09:41:39;2.63;;;1.30;;
18653;SDS011;9456;47.824;16.228;2023-07-31T09:44:08;1.30;;;1.07;;
18653;SDS011;9456;47.824;16.228;2023-07-31T09:46:36;3.23;;;1.47;;
18653;SDS011;9456;47.824;16.228;2023-07-31T09:49:06;2.67;;;1.50;;
18653;SDS011;9456;47.824;16.228;2023-07-31T09:51:36;2.30;;;1.53;;
18653;SDS011;9456;47.824;16.228;2023-07-31T09:54:12;5.33;;;1.57;;
18653;SDS011;9456;47.824;16.228;2023-07-31T09:56:42;1.83;;;1.73;;
18653;SDS011;9456;47.824;16.228;2023-07-31T09:59:11;1.87;;;1.50;;
18653;SDS011;9456;47.824;16.228;2023-07-31T10:01:41;3.53;;;1.53;;
18653;SDS011;9456;47.824;16.228;2023-07-31T10:04:09;1.13;;;1.07;;
18653;SDS011;9456;47.824;16.228;2023-07-31T10:06:38;1.80;;;1.27;;
18653;SDS011;9456;47.824;16.228;2023-07-31T10:09:08;1.47;;;1.37;;
18653;SDS011;9456;47.824;16.228;2023-07-31T10:11:37;1.53;;;1.30;;
18653;SDS011;9456;47.824;16.228;2023-07-31T10:14:05;1.50;;;1.33;;
18653;SDS011;9456;47.824;16.228;2023-07-31T10:16:34;3.63;;;1.53;;
18653;SDS011;9456;47.824;16.228;2023-07-31T10:19:04;2.13;;;1.23;;
18653;SDS011;9456;47.824;16.228;2023-07-31T10:21:33;1.60;;;1.50;;
18653;SDS011;9456;47.824;16.228;2023-07-31T10:24:04;2.50;;;1.43;;
18653;SDS011;9456;47.824;16.228;2023-07-31T10:26:33;2.90;;;1.67;;
18653;SDS011;9456;47.824;16.228;2023-07-31T10:29:02;1.90;;;1.40;;
18653;SDS011;9456;47.824;16.228;2023-07-31T10:31:31;1.70;;;1.60;;
18653;SDS011;9456;47.824;16.228;2023-07-31T10:34:00;2.00;;;1.67;;
18653;SDS011;9456;47.824;16.228;2023-07-31T10:36:29;2.60;;;1.40;;
18653;SDS011;9456;47.824;16.228;2023-07-31T10:38:58;2.03;;;1.80;;
18653;SDS011;9456;47.824;16.228;2023-07-31T10:41:30;3.87;;;2.03;;
18653;SDS011;9456;47.824;16.228;2023-07-31T10:43:59;1.90;;;1.27;;
18653;SDS011;9456;47.824;16.228;2023-07-31T10:46:28;4.53;;;1.90;;
18653;SDS011;9456;47.824;16.228;2023-07-31T10:54:11;1.93;;;1.63;;
18653;SDS011;9456;47.824;16.228;2023-07-31T10:56:40;2.90;;;1.67;;
18653;SDS011;9456;47.824;16.228;2023-07-31T10:59:09;1.93;;;1.60;;
18653;SDS011;9456;47.824;16.228;2023-07-31T11:01:50;2.57;;;1.60;;
18653;SDS011;9456;47.824;16.228;2023-07-31T11:04:23;2.90;;;1.63;;
18653;SDS011;9456;47.824;16.228;2023-07-31T11:06:58;1.70;;;1.30;;
18653;SDS011;9456;47.824;16.228;2023-07-31T11:09:28;2.03;;;1.43;;
18653;SDS011;9456;47.824;16.228;2023-07-31T11:11:57;1.80;;;1.40;;
18653;SDS011;9456;47.824;16.228;2023-07-31T11:14:26;4.90;;;1.60;;
18653;SDS011;9456;47.824;16.228;2023-07-31T11:16:55;2.37;;;1.47;;
18653;SDS011;9456;47.824;16.228;2023-07-31T11:19:25;2.40;;;1.37;;
18653;SDS011;9456;47.824;16.228;2023-07-31T11:21:54;3.90;;;1.47;;
18653;SDS011;9456;47.824;16.228;2023-07-31T11:24:23;3.90;;;1.67;;
18653;SDS011;9456;47.824;16.228;2023-07-31T11:26:52;1.73;;;1.50;;
18653;SDS011;9456;47.824;16.228;2023-07-31T11:29:28;2.40;;;1.40;;
18653;SDS011;9456;47.824;16.228;2023-07-31T11:31:56;3.63;;;1.53;;
18653;SDS011;9456;47.824;16.228;2023-07-31T11:34:25;3.60;;;1.63;;
18653;SDS011;9456;47.824;16.228;2023-07-31T11:36:54;3.53;;;1.63;;
18653;SDS011;9456;47.824;16.228;2023-07-31T11:39:23;4.63;;;1.80;;
18653;SDS011;9456;47.824;16.228;2023-07-31T11:41:52;2.20;;;1.50;;
18653;SDS011;9456;47.824;16.228;2023-07-31T11:44:21;3.80;;;1.90;;
18653;SDS011;9456;47.824;16.228;2023-07-31T11:46:50;1.87;;;1.77;;
18653;SDS011;9456;47.824;16.228;2023-07-31T11:49:19;2.20;;;1.80;;
18653;SDS011;9456;47.824;16.228;2023-07-31T11:51:48;2.47;;;1.80;;
18653;SDS011;9456;47.824;16.228;2023-07-31T11:54:17;3.47;;;1.90;;
18653;SDS011;9456;47.824;16.228;2023-07-31T11:56:46;2.73;;;1.77;;
18653;SDS011;9456;47.824;16.228;2023-07-31T11:59:15;2.10;;;1.90;;
18653;SDS011;9456;47.824;16.228;2023-07-31T12:01:44;1.70;;;1.60;;
18653;SDS011;9456;47.824;16.228;2023-07-31T12:04:13;2.17;;;1.97;;
18653;SDS011;9456;47.824;16.228;2023-07-31T12:06:41;3.50;;;1.77;;
18653;SDS011;9456;47.824;16.228;2023-07-31T12:09:10;4.33;;;1.87;;
18653;SDS011;9456;47.824;16.228;2023-07-31T12:11:46;1.73;;;1.63;;
18653;SDS011;9456;47.824;16.228;2023-07-31T12:14:27;2.90;;;1.87;;
18653;SDS011;9456;47.824;16.228;2023-07-31T12:17:05;2.03;;;1.33;;
18653;SDS011;9456;47.824;16.228;2023-07-31T12:19:53;2.60;;;1.70;;
18653;SDS011;9456;47.824;16.228;2023-07-31T12:22:22;5.47;;;1.63;;
18653;SDS011;9456;47.824;16.228;2023-07-31T12:24:50;2.33;;;1.87;;
18653;SDS011;9456;47.824;16.228;2023-07-31T12:27:19;2.10;;;1.90;;
18653;SDS011;9456;47.824;16.228;2023-07-31T12:29:48;2.70;;;2.20;;
18653;SDS011;9456;47.824;16.228;2023-07-31T12:32:21;3.07;;;1.73;;
18653;SDS011;9456;47.824;16.228;2023-07-31T12:34:50;1.83;;;1.70;;
18653;SDS011;9456;47.824;16.228;2023-07-31T12:37:19;2.40;;;2.10;;
18653;SDS011;9456;47.824;16.228;2023-07-31T12:39:49;3.10;;;2.10;;
18653;SDS011;9456;47.824;16.228;2023-07-31T12:42:18;2.40;;;2.13;;
18653;SDS011;9456;47.824;16.228;2023-07-31T12:44:46;3.23;;;2.00;;
18653;SDS011;9456;47.824;16.228;2023-07-31T12:47:15;3.57;;;2.13;;
18653;SDS011;9456;47.824;16.228;2023-07-31T12:49:44;2.37;;;2.17;;
18653;SDS011;9456;47.824;16.228;2023-07-31T12:52:13;3.97;;;2.10;;
18653;SDS011;9456;47.824;16.228;2023-07-31T12:54:42;3.33;;;2.17;;
18653;SDS011;9456;47.824;16.228;2023-07-31T12:57:11;2.37;;;1.80;;
18653;SDS011;9456;47.824;16.228;2023-07-31T12:59:40;1.60;;;1.50;;
18653;SDS011;9456;47.824;16.228;2023-07-31T13:02:09;4.40;;;2.00;;
18653;SDS011;9456;47.824;16.228;2023-07-31T13:04:38;6.13;;;2.03;;
18653;SDS011;9456;47.824;16.228;2023-07-31T13:07:07;2.10;;;1.90;;
18653;SDS011;9456;47.824;16.228;2023-07-31T13:09:36;2.80;;;2.20;;
18653;SDS011;9456;47.824;16.228;2023-07-31T13:12:05;3.80;;;2.27;;
18653;SDS011;9456;47.824;16.228;2023-07-31T13:14:35;2.77;;;2.43;;
18653;SDS011;9456;47.824;16.228;2023-07-31T13:17:04;3.97;;;2.03;;
18653;SDS011;9456;47.824;16.228;2023-07-31T13:19:33;2.63;;;1.60;;
18653;SDS011;9456;47.824;16.228;2023-07-31T13:22:02;3.17;;;2.00;;
18653;SDS011;9456;47.824;16.228;2023-07-31T13:24:31;2.73;;;1.87;;
18653;SDS011;9456;47.824;16.228;2023-07-31T13:27:00;4.47;;;2.00;;
18653;SDS011;9456;47.824;16.228;2023-07-31T13:32:07;2.97;;;1.97;;
18653;SDS011;9456;47.824;16.228;2023-07-31T13:34:43;1.87;;;1.77;;
18653;SDS011;9456;47.824;16.228;2023-07-31T13:37:12;3.53;;;2.27;;
18653;SDS011;9456;47.824;16.228;2023-07-31T13:39:41;3.87;;;1.90;;
18653;SDS011;9456;47.824;16.228;2023-07-31T13:42:10;2.80;;;2.10;;
18653;SDS011;9456;47.824;16.228;2023-07-31T13:44:39;5.00;;;2.00;;
18653;SDS011;9456;47.824;16.228;2023-07-31T13:47:08;2.57;;;1.87;;
18653;SDS011;9456;47.824;16.228;2023-07-31T13:49:37;2.80;;;1.80;;
18653;SDS011;9456;47.824;16.228;2023-07-31T13:52:06;2.27;;;2.00;;
18653;SDS011;9456;47.824;16.228;2023-07-31T13:54:35;2.90;;;2.10;;
18653;SDS011;9456;47.824;16.228;2023-07-31T13:57:05;3.23;;;1.80;;
18653;SDS011;9456;47.824;16.228;2023-07-31T13:59:34;6.07;;;2.30;;
18653;SDS011;9456;47.824;16.228;2023-07-31T14:02:03;2.53;;;2.20;;
18653;SDS011;9456;47.824;16.228;2023-07-31T14:04:32;2.97;;;1.90;;
18653;SDS011;9456;47.824;16.228;2023-07-31T14:07:01;7.20;;;2.20;;
18653;SDS011;9456;47.824;16.228;2023-07-31T14:09:30;2.17;;;1.90;;
18653;SDS011;9456;47.824;16.228;2023-07-31T14:11:59;3.40;;;2.07;;
18653;SDS011;9456;47.824;16.228;2023-07-31T14:14:28;2.50;;;2.30;;
18653;SDS011;9456;47.824;16.228;2023-07-31T14:16:57;3.47;;;2.23;;
18653;SDS011;9456;47.824;16.228;2023-07-31T14:19:26;6.40;;;2.57;;
18653;SDS011;9456;47.824;16.228;2023-07-31T14:21:55;2.93;;;2.00;;
18653;SDS011;9456;47.824;16.228;2023-07-31T14:24:25;3.17;;;2.30;;
18653;SDS011;9456;47.824;16.228;2023-07-31T14:26:54;7.07;;;2.40;;
18653;SDS011;9456;47.824;16.228;2023-07-31T14:29:23;2.77;;;2.10;;
18653;SDS011;9456;47.824;16.228;2023-07-31T14:31:52;3.20;;;2.37;;
18653;SDS011;9456;47.824;16.228;2023-07-31T14:34:21;4.27;;;2.80;;
18653;SDS011;9456;47.824;16.228;2023-07-31T14:36:53;4.03;;;2.10;;
18653;SDS011;9456;47.824;16.228;2023-07-31T14:39:22;3.23;;;2.30;;
18653;SDS011;9456;47.824;16.228;2023-07-31T14:41:50;3.77;;;2.03;;
18653;SDS011;9456;47.824;16.228;2023-07-31T14:44:19;4.17;;;2.50;;
18653;SDS011;9456;47.824;16.228;2023-07-31T14:46:48;3.23;;;2.27;;
18653;SDS011;9456;47.824;16.228;2023-07-31T14:49:17;3.03;;;2.20;;
18653;SDS011;9456;47.824;16.228;2023-07-31T14:51:46;4.50;;;2.33;;
18653;SDS011;9456;47.824;16.228;2023-07-31T14:54:15;8.47;;;3.00;;
18653;SDS011;9456;47.824;16.228;2023-07-31T14:56:44;3.87;;;2.90;;
18653;SDS011;9456;47.824;16.228;2023-07-31T14:59:13;3.37;;;2.40;;
18653;SDS011;9456;47.824;16.228;2023-07-31T15:01:42;4.63;;;2.30;;
18653;SDS011;9456;47.824;16.228;2023-07-31T15:04:11;4.20;;;2.70;;
18653;SDS011;9456;47.824;16.228;2023-07-31T15:06:40;4.47;;;2.40;;
18653;SDS011;9456;47.824;16.228;2023-07-31T15:09:08;3.97;;;2.90;;
18653;SDS011;9456;47.824;16.228;2023-07-31T15:11:37;3.13;;;2.30;;
18653;SDS011;9456;47.824;16.228;2023-07-31T15:14:06;8.73;;;2.60;;
18653;SDS011;9456;47.824;16.228;2023-07-31T15:16:35;2.40;;;2.20;;
18653;SDS011;9456;47.824;16.228;2023-07-31T15:19:04;3.30;;;2.40;;
18653;SDS011;9456;47.824;16.228;2023-07-31T15:21:33;3.10;;;2.70;;
18653;SDS011;9456;47.824;16.228;2023-07-31T15:24:02;3.50;;;2.20;;
18653;SDS011;9456;47.824;16.228;2023-07-31T15:26:31;4.50;;;2.20;;
18653;SDS011;9456;47.824;16.228;2023-07-31T15:29:02;3.87;;;2.60;;
18653;SDS011;9456;47.824;16.228;2023-07-31T15:31:36;2.97;;;2.33;;
18653;SDS011;9456;47.824;16.228;2023-07-31T15:34:05;5.97;;;2.97;;
18653;SDS011;9456;47.824;16.228;2023-07-31T15:36:34;5.00;;;2.70;;
18653;SDS011;9456;47.824;16.228;2023-07-31T15:39:03;3.87;;;2.80;;
18653;SDS011;9456;47.824;16.228;2023-07-31T15:41:32;4.13;;;2.50;;
18653;SDS011;9456;47.824;16.228;2023-07-31T15:44:01;5.80;;;2.60;;
18653;SDS011;9456;47.824;16.228;2023-07-31T15:46:30;4.13;;;2.53;;
18653;SDS011;9456;47.824;16.228;2023-07-31T15:51:43;3.00;;;2.53;;
18653;SDS011;9456;47.824;16.228;2023-07-31T15:54:12;3.70;;;2.97;;
18653;SDS011;9456;47.824;16.228;2023-07-31T15:56:41;3.77;;;2.70;;
18653;SDS011;9456;47.824;16.228;2023-07-31T15:59:10;4.20;;;2.50;;
18653;SDS011;9456;47.824;16.228;2023-07-31T16:01:39;3.27;;;2.50;;
18653;SDS011;9456;47.824;16.228;2023-07-31T16:04:08;4.37;;;2.63;;
18653;SDS011;9456;47.824;16.228;2023-07-31T16:06:37;3.87;;;2.97;;
18653;SDS011;9456;47.824;16.228;2023-07-31T16:09:06;3.50;;;2.50;;
18653;SDS011;9456;47.824;16.228;2023-07-31T16:11:35;3.73;;;2.70;;
18653;SDS011;9456;47.824;16.228;2023-07-31T16:14:04;3.13;;;2.83;;
18653;SDS011;9456;47.824;16.228;2023-07-31T16:16:33;10.87;;;3.13;;
18653;SDS011;9456;47.824;16.228;2023-07-31T16:19:02;3.00;;;2.70;;